createdAt,value
2017-07-06T00:00:56.396Z,100602
2017-07-06T00:01:55.776Z,100601
2017-07-06T00:02:56.539Z,100594
2017-07-06T00:03:54.876Z,100599
2017-07-06T00:04:56.001Z,100598
2017-07-06T00:05:55.328Z,100595
2017-07-06T00:06:55.096Z,100596
2017-07-06T00:07:56.168Z,100597
2017-07-06T00:08:55.225Z,100596
2017-07-06T00:09:55.311Z,100597
2017-07-06T00:10:55.376Z,100600
2017-07-06T00:11:56.681Z,100595
2017-07-06T00:12:55.487Z,100599
2017-07-06T00:13:56.490Z,100597
2017-07-06T00:14:56.512Z,100596
2017-07-06T00:15:55.621Z,100595
2017-07-06T00:16:55.628Z,100589
2017-07-06T00:17:56.854Z,100593
2017-07-06T00:18:55.697Z,100593
2017-07-06T00:19:56.757Z,100589
2017-07-06T00:20:55.848Z,100591
2017-07-06T00:21:56.869Z,100590
2017-07-06T00:22:57.594Z,100586
2017-07-06T00:23:57.886Z,100588
2017-07-06T00:24:57.684Z,100589
2017-07-06T00:25:56.059Z,100588
2017-07-06T00:26:57.056Z,100579
2017-07-06T00:27:56.134Z,100590
2017-07-06T00:28:56.176Z,100591
2017-07-06T00:29:56.537Z,100594
2017-07-06T00:30:57.996Z,100593
2017-07-06T00:31:57.322Z,100594
2017-07-06T00:32:58.127Z,100592
2017-07-06T00:33:58.173Z,100596
2017-07-06T00:34:56.520Z,100595
2017-07-06T00:35:57.798Z,100595
2017-07-06T00:36:57.495Z,100597
2017-07-06T00:37:56.585Z,100592
2017-07-06T00:38:56.630Z,100595
2017-07-06T00:39:56.670Z,100597
2017-07-06T00:40:56.758Z,100597
2017-07-06T00:41:57.095Z,100595
2017-07-06T00:42:56.855Z,100601
2017-07-06T00:43:57.790Z,100600
2017-07-06T00:44:57.882Z,100600
2017-07-06T00:45:57.885Z,100601
2017-07-06T00:46:56.993Z,100600
2017-07-06T00:47:57.263Z,100600
2017-07-06T00:48:57.071Z,100602
2017-07-06T00:49:57.070Z,100600
2017-07-06T00:50:58.046Z,100602
2017-07-06T00:51:57.060Z,100600
2017-07-06T00:52:58.853Z,100599
2017-07-06T00:53:57.509Z,100600
2017-07-06T00:54:58.974Z,100599
2017-07-06T00:55:57.310Z,100601
2017-07-06T00:56:57.370Z,100603
2017-07-06T00:57:59.108Z,100604
2017-07-06T00:58:58.430Z,100607
2017-07-06T00:59:59.488Z,100607
2017-07-06T01:00:57.516Z,100603
2017-07-06T01:01:59.340Z,100602
2017-07-06T01:02:59.405Z,100604
2017-07-06T01:03:57.743Z,100604
2017-07-06T01:04:57.771Z,100602
2017-07-06T01:05:57.856Z,100601
2017-07-06T01:06:58.908Z,100599
2017-07-06T01:07:59.584Z,100599
2017-07-06T01:08:57.969Z,100596
2017-07-06T01:09:59.639Z,100595
2017-07-06T01:10:58.985Z,100597
2017-07-06T01:11:59.064Z,100598
2017-07-06T01:12:59.063Z,100595
2017-07-06T01:13:58.199Z,100599
2017-07-06T01:15:00.008Z,100600
2017-07-06T01:15:59.999Z,100598
2017-07-06T01:17:00.146Z,100601
2017-07-06T01:17:59.482Z,100603
2017-07-06T01:18:58.578Z,100600
2017-07-06T01:19:59.504Z,100600
2017-07-06T01:21:00.257Z,100598
2017-07-06T01:21:58.618Z,100594
2017-07-06T01:22:59.609Z,100598
2017-07-06T01:23:58.718Z,100591
2017-07-06T01:24:58.766Z,100591
2017-07-06T01:26:00.453Z,100602
2017-07-06T01:26:58.819Z,100596
2017-07-06T01:27:58.838Z,100596
2017-07-06T01:28:58.882Z,100600
2017-07-06T01:29:59.948Z,100601
2017-07-06T01:31:00.703Z,100598
2017-07-06T01:32:00.101Z,100599
2017-07-06T01:33:00.838Z,100599
2017-07-06T01:34:00.211Z,100598
2017-07-06T01:34:59.311Z,100595
2017-07-06T01:35:59.330Z,100596
2017-07-06T01:36:59.366Z,100592
2017-07-06T01:37:59.488Z,100594
2017-07-06T01:38:59.491Z,100596
2017-07-06T01:40:00.546Z,100596
2017-07-06T01:41:01.329Z,100595
2017-07-06T01:42:00.627Z,100593
2017-07-06T01:42:59.730Z,100597
2017-07-06T01:43:59.729Z,100599
2017-07-06T01:45:01.480Z,100597
2017-07-06T01:46:00.821Z,100597
2017-07-06T01:47:00.812Z,100607
2017-07-06T01:47:59.928Z,100596
2017-07-06T01:49:00.042Z,100595
2017-07-06T01:50:01.026Z,100596
2017-07-06T01:51:00.081Z,100604
2017-07-06T01:52:01.824Z,100603
2017-07-06T01:53:00.216Z,100599
2017-07-06T01:54:01.987Z,100602
2017-07-06T01:55:01.349Z,100603
2017-07-06T01:56:02.052Z,100603
2017-07-06T01:57:01.427Z,100602
2017-07-06T01:58:00.578Z,100602
2017-07-06T01:59:00.617Z,100604
2017-07-06T02:00:02.344Z,100605
2017-07-06T02:01:00.672Z,100605
2017-07-06T02:02:00.788Z,100604
2017-07-06T02:03:00.889Z,100602
2017-07-06T02:04:02.595Z,100608
2017-07-06T02:05:00.921Z,100608
2017-07-06T02:06:01.985Z,100610
2017-07-06T02:07:02.729Z,100607
2017-07-06T02:08:02.756Z,100612
2017-07-06T02:09:02.800Z,100611
2017-07-06T02:10:02.816Z,100609
2017-07-06T02:11:02.171Z,100613
2017-07-06T02:12:01.316Z,100610
2017-07-06T02:13:02.262Z,100601
2017-07-06T02:14:01.329Z,100605
2017-07-06T02:15:01.372Z,100602
2017-07-06T02:16:03.041Z,100608
2017-07-06T02:17:01.372Z,100612
2017-07-06T02:18:01.459Z,100610
2017-07-06T02:19:02.426Z,100605
2017-07-06T02:20:02.447Z,100609
2017-07-06T02:21:03.167Z,100609
2017-07-06T02:22:01.466Z,100615
2017-07-06T02:23:02.449Z,100611
2017-07-06T02:24:03.237Z,100613
2017-07-06T02:25:01.656Z,100614
2017-07-06T02:26:03.373Z,100614
2017-07-06T02:27:01.772Z,100614
2017-07-06T02:28:01.915Z,100611
2017-07-06T02:29:01.938Z,100612
2017-07-06T02:30:03.710Z,100608
2017-07-06T02:31:03.796Z,100607
2017-07-06T02:32:02.177Z,100609
2017-07-06T02:33:03.997Z,100608
2017-07-06T02:34:02.382Z,100604
2017-07-06T02:35:03.409Z,100607
2017-07-06T02:36:03.425Z,100610
2017-07-06T02:37:02.459Z,100601
2017-07-06T02:38:02.485Z,100604
2017-07-06T02:39:02.602Z,100608
2017-07-06T02:40:04.372Z,100605
2017-07-06T02:41:04.403Z,100607
2017-07-06T02:42:02.741Z,100608
2017-07-06T02:43:02.733Z,100603
2017-07-06T02:44:04.519Z,100612
2017-07-06T02:45:03.916Z,100609
2017-07-06T02:46:02.976Z,100611
2017-07-06T02:47:03.079Z,100612
2017-07-06T02:48:04.730Z,100609
2017-07-06T02:49:04.007Z,100610
2017-07-06T02:50:03.152Z,100608
2017-07-06T02:51:04.805Z,100609
2017-07-06T02:52:03.138Z,100610
2017-07-06T02:53:03.181Z,100608
2017-07-06T02:54:04.221Z,100603
2017-07-06T02:55:03.305Z,100611
2017-07-06T02:56:03.419Z,100600
2017-07-06T02:57:03.323Z,100599
2017-07-06T02:58:03.344Z,100603
2017-07-06T02:59:04.409Z,100603
2017-07-06T03:00:03.474Z,100604
2017-07-06T03:01:03.588Z,100603
2017-07-06T03:02:05.345Z,100607
2017-07-06T03:03:03.738Z,100602
2017-07-06T03:04:05.513Z,100607
2017-07-06T03:05:04.872Z,100604
2017-07-06T03:06:04.903Z,100608
2017-07-06T03:07:04.019Z,100605
2017-07-06T03:08:04.105Z,100604
2017-07-06T03:09:05.050Z,100607
2017-07-06T03:10:04.115Z,100609
2017-07-06T03:11:05.822Z,100611
2017-07-06T03:12:04.210Z,100610
2017-07-06T03:13:05.201Z,100613
2017-07-06T03:14:05.938Z,100614
2017-07-06T03:15:05.970Z,100618
2017-07-06T03:16:04.368Z,100616
2017-07-06T03:17:04.479Z,100621
2017-07-06T03:18:05.472Z,100621
2017-07-06T03:19:04.560Z,100620
2017-07-06T03:20:06.195Z,100625
2017-07-06T03:21:05.606Z,100619
2017-07-06T03:22:05.634Z,100619
2017-07-06T03:23:04.696Z,100621
2017-07-06T03:24:05.802Z,100622
2017-07-06T03:25:05.823Z,100622
2017-07-06T03:26:05.968Z,100622
2017-07-06T03:27:05.093Z,100621
2017-07-06T03:28:06.817Z,100623
2017-07-06T03:29:05.210Z,100621
2017-07-06T03:30:05.256Z,100615
2017-07-06T03:31:06.258Z,100621
2017-07-06T03:32:05.344Z,100619
2017-07-06T03:33:07.043Z,100616
2017-07-06T03:34:05.459Z,100617
2017-07-06T03:35:05.547Z,100615
2017-07-06T03:36:05.564Z,100609
2017-07-06T03:37:07.270Z,100622
2017-07-06T03:38:05.625Z,100615
2017-07-06T03:39:07.355Z,100618
2017-07-06T03:40:05.762Z,100620
2017-07-06T03:41:07.403Z,100618
2017-07-06T03:42:06.726Z,100620
2017-07-06T03:43:07.503Z,100623
2017-07-06T03:44:06.815Z,100618
2017-07-06T03:45:05.972Z,100622
2017-07-06T03:46:06.972Z,100621
2017-07-06T03:47:07.699Z,100620
2017-07-06T03:48:06.018Z,100620
2017-07-06T03:49:07.042Z,100614
2017-07-06T03:50:06.104Z,100619
2017-07-06T03:51:06.245Z,100615
2017-07-06T03:52:06.278Z,100617
2017-07-06T03:53:07.274Z,100611
2017-07-06T03:54:07.999Z,100616
2017-07-06T03:55:06.402Z,100613
2017-07-06T03:56:08.113Z,100618
2017-07-06T03:57:08.140Z,100619
2017-07-06T03:58:08.242Z,100618
2017-07-06T03:59:06.600Z,100619
2017-07-06T04:00:08.356Z,100623
2017-07-06T04:01:06.778Z,100623
2017-07-06T04:02:06.869Z,100624
2017-07-06T04:03:07.853Z,100622
2017-07-06T04:04:06.931Z,100623
2017-07-06T04:05:08.645Z,100622
2017-07-06T04:06:07.031Z,100622
2017-07-06T04:07:08.694Z,100625
2017-07-06T04:08:07.147Z,100623
2017-07-06T04:09:07.133Z,100625
2017-07-06T04:10:07.143Z,100622
2017-07-06T04:11:07.174Z,100624
2017-07-06T04:12:08.932Z,100623
2017-07-06T04:13:07.340Z,100626
2017-07-06T04:14:08.354Z,100631
2017-07-06T04:15:09.115Z,100629
2017-07-06T04:16:08.473Z,100629
2017-07-06T04:17:07.563Z,100635
2017-07-06T04:18:08.527Z,100634
2017-07-06T04:19:09.278Z,100635
2017-07-06T04:20:07.668Z,100639
2017-07-06T04:21:08.682Z,100637
2017-07-06T04:22:07.683Z,100634
2017-07-06T04:23:08.065Z,100640
2017-07-06T04:24:09.585Z,100635
2017-07-06T04:25:07.946Z,100642
2017-07-06T04:26:08.955Z,100646
2017-07-06T04:27:08.048Z,100645
2017-07-06T04:28:09.803Z,100645
2017-07-06T04:29:08.494Z,100651
2017-07-06T04:30:08.285Z,100645
2017-07-06T04:31:09.258Z,100654
2017-07-06T04:32:09.324Z,100656
2017-07-06T04:33:09.418Z,100653
2017-07-06T04:34:09.445Z,100655
2017-07-06T04:35:10.555Z,100653
2017-07-06T04:36:09.517Z,100653
2017-07-06T04:37:09.625Z,100656
2017-07-06T04:38:09.595Z,100655
2017-07-06T04:39:08.722Z,100661
2017-07-06T04:40:10.406Z,100660
2017-07-06T04:41:10.024Z,100664
2017-07-06T04:42:08.730Z,100666
2017-07-06T04:43:10.540Z,100663
2017-07-06T04:44:08.825Z,100663
2017-07-06T04:45:08.895Z,100656
2017-07-06T04:46:08.998Z,100660
2017-07-06T04:47:11.046Z,100653
2017-07-06T04:48:09.813Z,100656
2017-07-06T04:49:09.098Z,100658
2017-07-06T04:50:10.826Z,100657
2017-07-06T04:51:09.155Z,100657
2017-07-06T04:52:09.205Z,100659
2017-07-06T04:53:10.525Z,100655
2017-07-06T04:54:09.349Z,100654
2017-07-06T04:55:11.028Z,100656
2017-07-06T04:56:11.066Z,100646
2017-07-06T04:57:09.479Z,100648
2017-07-06T04:58:09.473Z,100655
2017-07-06T04:59:11.525Z,100644
2017-07-06T05:00:11.238Z,100646
2017-07-06T05:01:09.596Z,100658
2017-07-06T05:02:09.658Z,100655
2017-07-06T05:03:11.358Z,100657
2017-07-06T05:04:11.366Z,100658
2017-07-06T05:05:10.150Z,100661
2017-07-06T05:06:09.809Z,100657
2017-07-06T05:07:09.940Z,100659
2017-07-06T05:08:11.633Z,100658
2017-07-06T05:09:10.943Z,100660
2017-07-06T05:10:10.103Z,100660
2017-07-06T05:11:12.093Z,100658
2017-07-06T05:12:11.139Z,100663
2017-07-06T05:13:11.254Z,100654
2017-07-06T05:14:11.204Z,100656
2017-07-06T05:15:11.956Z,100663
2017-07-06T05:16:10.313Z,100666
2017-07-06T05:17:11.640Z,100659
2017-07-06T05:18:10.378Z,100660
2017-07-06T05:19:10.363Z,100661
2017-07-06T05:20:10.451Z,100655
2017-07-06T05:21:10.503Z,100665
2017-07-06T05:22:10.571Z,100658
2017-07-06T05:23:12.603Z,100658
2017-07-06T05:24:10.739Z,100657
2017-07-06T05:25:10.766Z,100660
2017-07-06T05:26:12.426Z,100658
2017-07-06T05:27:12.496Z,100656
2017-07-06T05:28:10.958Z,100656
2017-07-06T05:29:11.215Z,100656
2017-07-06T05:30:10.981Z,100657
2017-07-06T05:31:11.032Z,100653
2017-07-06T05:32:11.100Z,100655
2017-07-06T05:33:11.114Z,100656
2017-07-06T05:34:11.247Z,100655
2017-07-06T05:35:11.521Z,100648
2017-07-06T05:36:11.381Z,100654
2017-07-06T05:37:13.119Z,100656
2017-07-06T05:38:13.283Z,100651
2017-07-06T05:39:13.187Z,100647
2017-07-06T05:40:11.593Z,100651
2017-07-06T05:41:12.867Z,100650
2017-07-06T05:42:13.329Z,100651
2017-07-06T05:43:11.730Z,100656
2017-07-06T05:44:11.749Z,100651
2017-07-06T05:45:12.688Z,100651
2017-07-06T05:46:11.812Z,100651
2017-07-06T05:47:13.825Z,100652
2017-07-06T05:48:11.837Z,100647
2017-07-06T05:49:13.516Z,100653
2017-07-06T05:50:13.617Z,100655
2017-07-06T05:51:11.891Z,100656
2017-07-06T05:52:12.945Z,100643
2017-07-06T05:53:14.000Z,100651
2017-07-06T05:54:13.070Z,100653
2017-07-06T05:55:12.105Z,100654
2017-07-06T05:56:12.171Z,100653
2017-07-06T05:57:12.219Z,100652
2017-07-06T05:58:12.343Z,100655
2017-07-06T05:59:14.343Z,100651
2017-07-06T06:00:14.061Z,100653
2017-07-06T06:01:14.160Z,100647
2017-07-06T06:02:12.488Z,100656
2017-07-06T06:03:12.489Z,100656
2017-07-06T06:04:12.507Z,100657
2017-07-06T06:05:12.857Z,100650
2017-07-06T06:06:13.581Z,100655
2017-07-06T06:07:12.724Z,100655
2017-07-06T06:08:13.743Z,100652
2017-07-06T06:09:13.769Z,100649
2017-07-06T06:10:14.505Z,100658
2017-07-06T06:11:14.850Z,100662
2017-07-06T06:12:13.010Z,100652
2017-07-06T06:13:14.062Z,100657
2017-07-06T06:14:14.091Z,100658
2017-07-06T06:15:14.769Z,100652
2017-07-06T06:16:13.238Z,100658
2017-07-06T06:17:13.924Z,100658
2017-07-06T06:18:13.399Z,100661
2017-07-06T06:19:15.105Z,100664
2017-07-06T06:20:14.434Z,100659
2017-07-06T06:21:14.547Z,100662
2017-07-06T06:22:15.216Z,100656
2017-07-06T06:23:15.596Z,100651
2017-07-06T06:24:14.642Z,100650
2017-07-06T06:25:13.715Z,100652
2017-07-06T06:26:15.448Z,100655
2017-07-06T06:27:16.152Z,100659
2017-07-06T06:28:15.475Z,100660
2017-07-06T06:29:15.883Z,100658
2017-07-06T06:30:13.926Z,100657
2017-07-06T06:31:14.947Z,100662
2017-07-06T06:32:14.026Z,100660
2017-07-06T06:33:15.726Z,100661
2017-07-06T06:34:14.001Z,100657
2017-07-06T06:35:14.345Z,100657
2017-07-06T06:36:14.990Z,100658
2017-07-06T06:37:14.810Z,100662
2017-07-06T06:38:14.140Z,100659
2017-07-06T06:39:15.920Z,100659
2017-07-06T06:40:14.232Z,100660
2017-07-06T06:41:16.261Z,100657
2017-07-06T06:42:15.349Z,100649
2017-07-06T06:43:14.470Z,100658
2017-07-06T06:44:15.431Z,100659
2017-07-06T06:45:14.533Z,100658
2017-07-06T06:46:16.296Z,100659
2017-07-06T06:47:17.313Z,100651
2017-07-06T06:48:14.643Z,100661
2017-07-06T06:49:14.773Z,100660
2017-07-06T06:50:14.789Z,100665
2017-07-06T06:51:15.421Z,100655
2017-07-06T06:52:16.622Z,100665
2017-07-06T06:53:16.142Z,100666
2017-07-06T06:54:14.948Z,100666
2017-07-06T06:55:15.985Z,100659
2017-07-06T06:56:15.012Z,100661
2017-07-06T06:57:16.778Z,100662
2017-07-06T06:58:16.114Z,100665
2017-07-06T06:59:15.569Z,100664
2017-07-06T07:00:16.980Z,100660
2017-07-06T07:01:15.375Z,100665
2017-07-06T07:02:15.367Z,100665
2017-07-06T07:03:17.099Z,100661
2017-07-06T07:04:15.463Z,100663
2017-07-06T07:05:15.882Z,100667
2017-07-06T07:06:15.624Z,100669
2017-07-06T07:07:17.338Z,100664
2017-07-06T07:08:18.440Z,100667
2017-07-06T07:09:15.773Z,100665
2017-07-06T07:10:18.659Z,100664
2017-07-06T07:11:17.809Z,100664
2017-07-06T07:12:16.943Z,100662
2017-07-06T07:13:16.568Z,100660
2017-07-06T07:14:17.758Z,100653
2017-07-06T07:15:16.150Z,100666
2017-07-06T07:16:17.197Z,100664
2017-07-06T07:17:16.529Z,100656
2017-07-06T07:18:18.899Z,100668
2017-07-06T07:19:18.010Z,100663
2017-07-06T07:20:16.273Z,100663
2017-07-06T07:21:18.098Z,100668
2017-07-06T07:22:16.359Z,100669
2017-07-06T07:23:16.683Z,100661
2017-07-06T07:24:18.240Z,100665
2017-07-06T07:25:18.208Z,100671
2017-07-06T07:26:16.536Z,100664
2017-07-06T07:27:16.532Z,100665
2017-07-06T07:28:17.409Z,100662
2017-07-06T07:29:17.569Z,100659
2017-07-06T07:30:16.652Z,100669
2017-07-06T07:31:16.720Z,100660
2017-07-06T07:32:16.813Z,100667
2017-07-06T07:33:18.203Z,100667
2017-07-06T07:34:16.988Z,100663
2017-07-06T07:35:18.203Z,100666
2017-07-06T07:36:18.641Z,100666
2017-07-06T07:37:17.004Z,100667
2017-07-06T07:38:19.402Z,100671
2017-07-06T07:39:17.719Z,100669
2017-07-06T07:40:18.735Z,100670
2017-07-06T07:41:19.248Z,100672
2017-07-06T07:42:18.908Z,100674
2017-07-06T07:43:17.321Z,100673
2017-07-06T07:44:17.381Z,100673
2017-07-06T07:45:18.443Z,100675
2017-07-06T07:46:17.425Z,100674
2017-07-06T07:47:18.677Z,100672
2017-07-06T07:48:19.779Z,100666
2017-07-06T07:49:19.170Z,100674
2017-07-06T07:50:17.649Z,100672
2017-07-06T07:51:19.338Z,100672
2017-07-06T07:52:18.705Z,100663
2017-07-06T07:53:19.783Z,100672
2017-07-06T07:54:20.326Z,100676
2017-07-06T07:55:19.619Z,100675
2017-07-06T07:56:18.897Z,100672
2017-07-06T07:57:17.975Z,100677
2017-07-06T07:58:19.667Z,100672
2017-07-06T07:59:19.341Z,100671
2017-07-06T08:00:18.677Z,100671
2017-07-06T08:01:18.127Z,100670
2017-07-06T08:02:18.764Z,100669
2017-07-06T08:03:19.118Z,100668
2017-07-06T08:04:18.300Z,100663
2017-07-06T08:05:20.282Z,100671
2017-07-06T08:06:19.348Z,100666
2017-07-06T08:07:20.098Z,100666
2017-07-06T08:08:21.745Z,100664
2017-07-06T08:09:20.769Z,100669
2017-07-06T08:10:21.662Z,100672
2017-07-06T08:11:18.836Z,100669
2017-07-06T08:12:19.227Z,100669
2017-07-06T08:13:19.384Z,100670
2017-07-06T08:14:20.471Z,100664
2017-07-06T08:15:18.848Z,100665
2017-07-06T08:16:18.900Z,100668
2017-07-06T08:17:20.547Z,100658
2017-07-06T08:18:18.919Z,100657
2017-07-06T08:19:19.935Z,100660
2017-07-06T08:20:20.742Z,100657
2017-07-06T08:21:20.106Z,100663
2017-07-06T08:22:20.159Z,100665
2017-07-06T08:23:20.467Z,100661
2017-07-06T08:24:19.379Z,100660
2017-07-06T08:25:20.115Z,100657
2017-07-06T08:26:19.392Z,100657
2017-07-06T08:27:21.203Z,100664
2017-07-06T08:28:19.508Z,100664
2017-07-06T08:29:20.571Z,100664
2017-07-06T08:30:19.683Z,100666
2017-07-06T08:31:19.774Z,100664
2017-07-06T08:32:19.814Z,100666
2017-07-06T08:33:19.896Z,100663
2017-07-06T08:34:19.938Z,100663
2017-07-06T08:35:20.929Z,100664
2017-07-06T08:36:20.038Z,100653
2017-07-06T08:37:21.008Z,100663
2017-07-06T08:38:22.418Z,100661
2017-07-06T08:39:20.191Z,100664
2017-07-06T08:40:20.198Z,100658
2017-07-06T08:41:22.218Z,100654
2017-07-06T08:42:22.493Z,100653
2017-07-06T08:43:22.002Z,100656
2017-07-06T08:44:20.402Z,100657
2017-07-06T08:45:20.420Z,100653
2017-07-06T08:46:20.483Z,100654
2017-07-06T08:47:22.463Z,100652
2017-07-06T08:48:20.537Z,100657
2017-07-06T08:49:21.136Z,100654
2017-07-06T08:50:20.701Z,100655
2017-07-06T08:51:22.052Z,100645
2017-07-06T08:52:22.510Z,100636
2017-07-06T08:53:21.227Z,100642
2017-07-06T08:54:23.951Z,100640
2017-07-06T08:55:22.703Z,100638
2017-07-06T08:56:23.662Z,100636
2017-07-06T08:57:22.763Z,100632
2017-07-06T08:58:23.208Z,100634
2017-07-06T08:59:21.444Z,100634
2017-07-06T09:00:21.780Z,100631
2017-07-06T09:01:22.125Z,100627
2017-07-06T09:02:21.438Z,100633
2017-07-06T09:03:22.068Z,100625
2017-07-06T09:04:21.424Z,100629
2017-07-06T09:05:22.887Z,100633
2017-07-06T09:06:22.477Z,100632
2017-07-06T09:07:22.333Z,100626
2017-07-06T09:08:23.169Z,100627
2017-07-06T09:09:22.292Z,100620
2017-07-06T09:10:22.417Z,100618
2017-07-06T09:11:24.636Z,100619
2017-07-06T09:12:24.189Z,100611
2017-07-06T09:13:23.683Z,100616
2017-07-06T09:14:22.042Z,100611
2017-07-06T09:15:24.351Z,100609
2017-07-06T09:16:25.084Z,100602
2017-07-06T09:17:23.617Z,100605
2017-07-06T09:18:22.667Z,100595
2017-07-06T09:19:23.777Z,100602
2017-07-06T09:20:24.537Z,100601
2017-07-06T09:21:24.515Z,100593
2017-07-06T09:22:24.533Z,100596
2017-07-06T09:23:23.256Z,100595
2017-07-06T09:24:24.082Z,100590
2017-07-06T09:25:22.441Z,100586
2017-07-06T09:26:22.508Z,100599
2017-07-06T09:27:23.447Z,100594
2017-07-06T09:28:23.482Z,100595
2017-07-06T09:29:24.254Z,100599
2017-07-06T09:30:23.967Z,100599
2017-07-06T09:31:25.342Z,100600
2017-07-06T09:32:23.594Z,100601
2017-07-06T09:33:25.310Z,100597
2017-07-06T09:34:22.713Z,100599
2017-07-06T09:35:23.106Z,100596
2017-07-06T09:36:22.882Z,100599
2017-07-06T09:37:22.971Z,100595
2017-07-06T09:38:24.047Z,100589
2017-07-06T09:39:23.080Z,100596
2017-07-06T09:40:25.759Z,100596
2017-07-06T09:41:25.105Z,100596
2017-07-06T09:42:24.695Z,100593
2017-07-06T09:43:25.024Z,100596
2017-07-06T09:44:23.307Z,100603
2017-07-06T09:45:25.074Z,100607
2017-07-06T09:46:25.208Z,100607
2017-07-06T09:47:25.485Z,100604
2017-07-06T09:48:23.679Z,100602
2017-07-06T09:49:23.748Z,100607
2017-07-06T09:50:25.063Z,100612
2017-07-06T09:51:24.678Z,100613
2017-07-06T09:52:26.240Z,100613
2017-07-06T09:53:24.866Z,100602
2017-07-06T09:54:24.913Z,100610
2017-07-06T09:55:25.239Z,100606
2017-07-06T09:56:24.148Z,100610
2017-07-06T09:57:24.101Z,100605
2017-07-06T09:58:27.662Z,100609
2017-07-06T09:59:27.686Z,100601
2017-07-06T10:00:26.029Z,100606
2017-07-06T10:01:26.063Z,100598
2017-07-06T10:02:26.039Z,100591
2017-07-06T10:03:25.059Z,100593
2017-07-06T10:04:25.375Z,100587
2017-07-06T10:05:26.311Z,100588
2017-07-06T10:06:26.446Z,100586
2017-07-06T10:07:24.687Z,100582
2017-07-06T10:08:27.078Z,100585
2017-07-06T10:09:26.138Z,100576
2017-07-06T10:10:28.390Z,100583
2017-07-06T10:11:26.427Z,100580
2017-07-06T10:12:24.917Z,100589
2017-07-06T10:13:27.030Z,100589
2017-07-06T10:14:28.631Z,100587
2017-07-06T10:15:25.638Z,100585
2017-07-06T10:16:29.518Z,100577
2017-07-06T10:17:25.385Z,100580
2017-07-06T10:18:27.804Z,100577
2017-07-06T10:19:27.973Z,100578
2017-07-06T10:20:28.360Z,100566
2017-07-06T10:21:27.502Z,100575
2017-07-06T10:22:25.947Z,100574
2017-07-06T10:23:28.793Z,100566
2017-07-06T10:24:26.669Z,100577
2017-07-06T10:25:25.582Z,100575
2017-07-06T10:26:30.375Z,100569
2017-07-06T10:27:27.816Z,100578
2017-07-06T10:28:28.109Z,100577
2017-07-06T10:29:30.108Z,100578
2017-07-06T10:30:26.714Z,100578
2017-07-06T10:31:27.598Z,100577
2017-07-06T10:32:26.480Z,100578
2017-07-06T10:33:26.558Z,100578
2017-07-06T10:34:25.927Z,100571
2017-07-06T10:35:28.439Z,100575
2017-07-06T10:36:26.722Z,100573
2017-07-06T10:37:26.685Z,100571
2017-07-06T10:38:27.558Z,100577
2017-07-06T10:39:27.429Z,100575
2017-07-06T10:40:29.413Z,100577
2017-07-06T10:41:28.083Z,100579
2017-07-06T10:42:28.870Z,100570
2017-07-06T10:43:28.053Z,100579
2017-07-06T10:44:29.834Z,100579
2017-07-06T10:45:29.069Z,100582
2017-07-06T10:46:26.400Z,100577
2017-07-06T10:47:28.050Z,100577
2017-07-06T10:48:26.510Z,100576
2017-07-06T10:49:27.967Z,100573
2017-07-06T10:50:26.515Z,100580
2017-07-06T10:51:27.093Z,100574
2017-07-06T10:52:26.508Z,100575
2017-07-06T10:53:29.361Z,100576
2017-07-06T10:54:26.676Z,100579
2017-07-06T10:55:26.696Z,100573
2017-07-06T10:56:29.014Z,100574
2017-07-06T10:57:26.773Z,100579
2017-07-06T10:58:26.816Z,100574
2017-07-06T10:59:27.051Z,100577
2017-07-06T11:00:27.807Z,100576
2017-07-06T11:01:27.139Z,100577
2017-07-06T11:02:29.038Z,100578
2017-07-06T11:03:27.611Z,100572
2017-07-06T11:04:27.744Z,100577
2017-07-06T11:05:28.483Z,100575
2017-07-06T11:06:27.259Z,100512
2017-07-06T11:07:27.915Z,100575
2017-07-06T11:08:28.994Z,100571
2017-07-06T11:09:27.317Z,100574
2017-07-06T11:10:27.410Z,100574
2017-07-06T11:11:30.039Z,100572
2017-07-06T11:12:29.906Z,100567
2017-07-06T11:13:29.152Z,100558
2017-07-06T11:14:28.201Z,100537
2017-07-06T11:15:27.641Z,100564
2017-07-06T11:16:29.994Z,100568
2017-07-06T11:17:29.826Z,100554
2017-07-06T11:18:30.141Z,100563
2017-07-06T11:19:29.414Z,100563
2017-07-06T11:20:28.931Z,100570
2017-07-06T11:21:30.250Z,100567
2017-07-06T11:22:28.957Z,100573
2017-07-06T11:23:30.722Z,100570
2017-07-06T11:24:28.062Z,100571
2017-07-06T11:25:28.756Z,100567
2017-07-06T11:26:29.180Z,100571
2017-07-06T11:27:28.226Z,100574
2017-07-06T11:28:29.484Z,100569
2017-07-06T11:29:29.399Z,100568
2017-07-06T11:30:29.460Z,100566
2017-07-06T11:31:29.243Z,100571
2017-07-06T11:32:29.601Z,100571
2017-07-06T11:33:30.336Z,100568
2017-07-06T11:34:30.391Z,100566
2017-07-06T11:35:31.893Z,100566
2017-07-06T11:36:32.466Z,100556
2017-07-06T11:37:29.906Z,100555
2017-07-06T11:38:31.157Z,100554
2017-07-06T11:39:29.924Z,100553
2017-07-06T11:40:31.358Z,100554
2017-07-06T11:41:30.992Z,100554
2017-07-06T11:42:29.946Z,100548
2017-07-06T11:43:30.777Z,100556
2017-07-06T11:44:30.788Z,100555
2017-07-06T11:45:30.155Z,100554
2017-07-06T11:46:29.301Z,100555
2017-07-06T11:47:29.683Z,100552
2017-07-06T11:48:30.975Z,100556
2017-07-06T11:49:32.084Z,100556
2017-07-06T11:50:30.582Z,100547
2017-07-06T11:51:31.287Z,100553
2017-07-06T11:52:30.595Z,100552
2017-07-06T11:53:30.670Z,100555
2017-07-06T11:54:29.751Z,100543
2017-07-06T11:55:31.435Z,100546
2017-07-06T11:56:32.190Z,100553
2017-07-06T11:57:29.794Z,100555
2017-07-06T11:58:30.867Z,100550
2017-07-06T11:59:31.210Z,100551
2017-07-06T12:00:32.352Z,100550
2017-07-06T12:01:31.033Z,100548
2017-07-06T12:02:30.095Z,100547
2017-07-06T12:03:32.417Z,100553
2017-07-06T12:04:31.168Z,100556
2017-07-06T12:05:30.653Z,100545
2017-07-06T12:06:32.044Z,100555
2017-07-06T12:07:30.307Z,100550
2017-07-06T12:08:30.922Z,100552
2017-07-06T12:09:31.340Z,100547
2017-07-06T12:10:31.967Z,100542
2017-07-06T12:11:32.438Z,100542
2017-07-06T12:12:31.464Z,100551
2017-07-06T12:13:30.494Z,100554
2017-07-06T12:14:32.215Z,100553
2017-07-06T12:15:31.628Z,100550
2017-07-06T12:16:31.596Z,100545
2017-07-06T12:17:31.015Z,100542
2017-07-06T12:18:32.456Z,100537
2017-07-06T12:19:34.495Z,100542
2017-07-06T12:20:33.807Z,100541
2017-07-06T12:21:31.486Z,100538
2017-07-06T12:22:31.063Z,100534
2017-07-06T12:23:32.903Z,100531
2017-07-06T12:24:31.911Z,100529
2017-07-06T12:25:34.029Z,100528
2017-07-06T12:26:33.492Z,100520
2017-07-06T12:27:31.196Z,100527
2017-07-06T12:28:32.309Z,100528
2017-07-06T12:29:31.649Z,100525